Jemez Springs, Valles Caldera, New Mexico Weather observations

Data are for 10 minute period ending at time listed.
 Day   Time   Solar   Ave.   Ave.  Ave.  Vector  Max.   Baro.   Total    
  of    of     Rad.   Air    Rel.  Wind   Wind   Wind  Press.  Precip.   
Year   Day            Temp.  Hum.  Speed  Dir.   Gust                    
2014   (MST)  Kw/m2    F      %     mph   deg.    mph    mb.     in.     
-------------------------------------------------------------------------
 209   14:30   0.71   79.4    39    8.7   185    16.7   815.8    0.00 
 209   14:40   0.80   80.7    37    7.0   181    14.9   815.7    0.00 
 209   14:50   0.79   81.3    35    6.7   182    14.3   815.7    0.00 
 209   15:00   0.81   81.2    35    8.0   180    15.5   815.7    0.00 
 209   15:10   0.83   81.5    34    8.2   186    16.7   815.6    0.00 
 209   15:20   0.46   80.8    35    6.7   184    12.5   815.5    0.00 
 209   15:30   0.77   80.9    35    7.5   169    13.7   815.4    0.00 
 209   15:40   0.35   80.1    37    8.5   181    15.5   815.3    0.00 
 209   15:50   0.47   79.3    38    7.7   179    13.1   815.2    0.00 
 209   16:00   0.25   79.2    38    8.5   183    13.1   815.1    0.00 
 209   16:10   0.40   79.2    38    7.0   181    16.7   815.0    0.00 
 209   16:20   0.58   80.0    36    6.9   179    13.1   815.0    0.00 
 209   16:30   0.60   81.1    35    6.1   174    10.8   815.0    0.00 
 209   16:40   0.52   81.2    34    5.2   191    13.7   815.1    0.00 
 209   16:50   0.46   78.3    34    9.3   331    17.9   815.2    0.00 
 209   17:00   0.17   72.8    44   11.4   357    19.7   815.2    0.00 
 209   17:10   0.14   70.4    52   10.7   346    19.7   815.4    0.00 
 209   17:20   0.10   69.1    56   10.4   333    16.1   815.2    0.00 
 209   17:30   0.08   69.1    57    9.7   351    16.7   815.2    0.00 
 209   17:40   0.08   67.1    60   10.9   346    21.5   815.2    0.00 
 209   17:50   0.09   66.9    60    8.7   353    14.9   815.1    0.00 
 209   18:00   0.12   66.5    62   10.2     2    18.5   815.1    0.00 
 209   18:10   0.07   65.8    64   10.0    16    17.9   815.2    0.00 
 209   18:20   0.06   65.6    65    9.6    14    16.7   815.3    0.00 
 209   18:30   0.06   65.5    66   10.8     7    19.1   815.4    0.00 
 209   18:40   0.04   65.8    66    8.2     7    14.3   815.5    0.00 
 209   18:50   0.03   66.2    66    6.9   348    13.1   815.5    0.00 
 209   19:00   0.02   65.4    69    7.0   360    13.1   815.4    0.00 
 209   19:10   0.01   65.5    68    7.3     0    11.9   815.4    0.00 
 209   19:20   0.00   65.4    68    7.9     2    14.3   815.4    0.00 
 209   19:30   0.00   65.0    68    6.8     5    12.5   815.5    0.00 
 209   19:40   0.00   65.0    68    6.0     7    13.1   815.6    0.00 
 209   19:50   0.00   64.8    68    5.8   357    11.9   815.8    0.00 
 209   20:00   0.00   64.8    68    6.7   359    13.1   815.9    0.00 
 209   20:10   0.00   64.1    71    6.5    14    10.8   816.0    0.00 
 209   20:20   0.00   63.6    73    7.0     8    11.3   816.1    0.00 
 209   20:30   0.00   63.5    73    6.1   358    10.8   816.2    0.00 
 209   20:40   0.00   63.5    73    7.5    11    11.9   816.4    0.00 
 209   20:50   0.00   63.2    74    6.8    10    10.8   816.5    0.00 
 209   21:00   0.00   63.1    74    7.1     7    11.9   816.6    0.00 
 209   21:10   0.00   63.0    75    6.4     6    12.5   816.6    0.00 
 209   21:20   0.00   62.9    74    6.9     1    14.3   816.6    0.00 
 209   21:30   0.00   63.2    72    6.4   353    10.8   816.7    0.00 
 209   21:40   0.00   63.1    73    5.1    17     9.0   816.7    0.00 
 209   21:50   0.00   62.7    75    5.7    17     9.6   816.7    0.00 
 209   22:00   0.00   62.5    76    6.2     8    10.8   816.7    0.00 
 209   22:10   0.00   62.5    76    5.8    10    10.8   816.7    0.00 
 209   22:20   0.00   62.6    75    6.3     6    11.9   816.9    0.00 
 209   22:30   0.00   62.7    75    4.7     2    10.2   816.9    0.00 
 209   22:40   0.00   62.8    75    6.1     6     9.0   816.9    0.00 
 209   22:50   0.00   63.0    74    5.3   358     9.6   816.9    0.00 
 209   23:00   0.00   63.2    74    3.9   354     7.8   816.8    0.00 
 209   23:10   0.00   62.9    76    4.8     3     9.6   816.8    0.00 
 209   23:20   0.00   61.6    83    3.8     8     7.2   816.7    0.01 
 209   23:30   0.00   60.6    87    3.7   358     6.6   816.7    0.02 
 209   23:40   0.00   60.2    90    3.5   356     7.2   816.7    0.01 
 209   23:50   0.00   59.9    91    4.7    10     8.4   816.7    0.00 
 210    0:00   0.00   59.9    91    4.2     8     8.4   816.7    0.00 
 210    0:10   0.00   59.9    92    4.7     4     7.8   816.7    0.00 
 210    0:20   0.00   60.0    91    5.1     3     9.0   816.6    0.00 
 210    0:30   0.00   60.1    91    4.3     0     8.4   816.6    0.00 
 210    0:40   0.00   60.1    90    5.5     1    10.8   816.4    0.00 
 210    0:50   0.00   60.2    90    4.1     2     7.8   816.4    0.00 
 210    1:00   0.00   60.2    90    5.1    11     8.4   816.3    0.00 
 210    1:10   0.00   60.4    89    4.8     9     9.0   816.1    0.00 
 210    1:20   0.00   60.3    90    3.3     4     6.6   816.1    0.00 
 210    1:30   0.00   60.4    89    3.8   359     7.2   816.0    0.00 
 210    1:40   0.00   60.6    89    3.7     3     6.6   815.9    0.00 
 210    1:50   0.00   60.7    89    4.1   360     7.2   815.8    0.00 
 210    2:00   0.00   60.9    88    3.2     2     6.0   815.8    0.00 
 210    2:10   0.00   60.9    88    2.7    12     4.2   815.7    0.01 
 210    2:20   0.00   60.6    90    3.2     8     5.4   815.7    0.00 
 210    2:30   0.00   60.3    91    3.5   342     7.2   815.6    0.00 
 210    2:40   0.00   60.3    92    3.6   332     5.7   815.6    0.00 
 210    2:50   0.00   60.3    92    2.6   331     5.4   815.6    0.00 
 210    3:00   0.00   60.4    92    2.6     6     4.8   815.6    0.00 
 210    3:10   0.00   60.3    92    3.1    17     6.6   815.5    0.01 
 210    3:20   0.00   60.2    93    3.8   354     6.0   815.4    0.00 
 210    3:30   0.00   60.0    93    3.9    12     6.0   815.3    0.00 
 210    3:40   0.00   60.0    93    3.8     8     6.0   815.3    0.00 
 210    3:50   0.00   60.0    92    3.9    12     7.2   815.3    0.00 
 210    4:00   0.00   60.1    92    2.3   351     4.2   815.4    0.00 
 210    4:10   0.00   60.0    92    1.9    11     4.8   815.4    0.00 
 210    4:20   0.00   59.9    92    3.2     3     5.4   815.3    0.00 
 210    4:30   0.00   59.8    92    4.0    17     6.0   815.4    0.00 
 210    4:40   0.00   59.5    92    3.3   342     4.8   815.4    0.00 
 210    4:50   0.00   59.3    92    2.1   337     4.2   815.3    0.00 
 210    5:00   0.00   58.9    93    2.8    13     4.8   815.3    0.00 
 210    5:10   0.00   58.9    93    2.9     7     4.5   815.5    0.00 
 210    5:20   0.00   58.9    92    3.0   359     5.4   815.5    0.00 
 210    5:30   0.00   58.7    92    2.9    13     5.4   815.5    0.00 
 210    5:40   0.01   58.6    93    2.8   351     5.4   815.6    0.00 
 210    5:50   0.02   58.7    93    1.3     7     3.0   815.8    0.00 
 210    6:00   0.05   59.2    92    2.5   358     4.2   815.7    0.00 
 210    6:10   0.06   59.7    91    2.6     9     5.4   815.7    0.00 
 210    6:20   0.08   59.9    90    3.2   358     6.0   815.7    0.00 
 210    6:30   0.14   60.7    89    2.1    15     5.4   815.8    0.00 
 210    6:40   0.13   61.7    87    1.9     7     4.8   816.0    0.00 
 210    6:50   0.06   61.9    85    2.9    23     6.0   816.0    0.00 
 210    7:00   0.07   61.7    86    2.7    19     4.8   815.9    0.00 
 210    7:10   0.08   62.1    86    1.5     4     4.2   816.0    0.00 
 210    7:20   0.10   62.5    85    0.9    11     3.6   816.0    0.00 
 210    7:30   0.17   63.2    83    1.3    16     4.2   815.9    0.00 
 210    7:40   0.31   64.5    79    1.6    14     3.6   816.0    0.00 
 210    7:50   0.34   65.6    77    1.1    13     3.6   816.0    0.00 
 210    8:00   0.17   65.8    76    0.1    51     1.8   816.1    0.00 
 210    8:10   0.18   65.4    75    0.4    95     4.2   816.1    0.00 
 210    8:20   0.15   65.9    74    2.7   145     4.8   816.1    0.00 
 210    8:30   0.17   65.9    73    3.9   184     6.0   816.0    0.00 
 210    8:40   0.29   66.3    73    3.8   177     6.0   815.9    0.00 
 210    8:50   0.26   66.6    73    4.2   182     7.2   815.8    0.00 
 210    9:00   0.30   67.0    73    3.8   168     8.4   815.8    0.00 
 210    9:10   0.28   67.5    71    3.5   179     6.9   815.7    0.00 
 210    9:20   0.22   67.0    70    3.6   170     6.6   815.8    0.00 
 210    9:30   0.23   67.4    70    2.7   204     6.0   815.7    0.00 
 210    9:40   0.34   68.4    69    3.2   193     6.0   815.6    0.00 
 210    9:50   0.36   68.6    68    3.8   166     6.6   815.6    0.00 
 210   10:00   0.40   69.5    67    2.6   201     6.6   815.5    0.00 
 210   10:10   0.54   69.5    66    3.2   167     6.0   815.3    0.00 
 210   10:20   0.87   71.4    62    4.3   159     7.8   815.2    0.00 
 210   10:30   0.87   72.0    61    5.4   189    10.2   815.1    0.00 
 210   10:40   0.47   71.7    60    5.2   188     8.4   815.0    0.00 
 210   10:50   0.60   71.2    61    4.6   189     8.4   814.9    0.00 
 210   11:00   0.87   75.1    56    2.7   158     6.0   814.7    0.00 
 210   11:10   0.50   74.6    54    2.9   271     9.0   814.7    0.00 
 210   11:20   0.29   72.9    58    4.8   192    10.8   814.7    0.00 
 210   11:30   0.21   71.7    60    5.0   163    10.2   814.6    0.00 
 210   11:40   0.28   70.8    64    6.4   178    10.8   814.5    0.00 
 210   11:50   0.31   69.2    69    6.9   171    11.3   814.4    0.00 
 210   12:00   0.46   69.4    68    4.8   167     7.8   814.4    0.00 
 210   12:10   0.44   70.6    65    5.2   181     8.4   814.4    0.00 
 210   12:20   0.41   70.8    63    4.5   192     7.2   814.3    0.00 
 210   12:30   0.34   71.3    61    4.0   192     6.6   814.2    0.00 
 210   12:40   0.45   71.6    62    3.9   184     6.0   814.0    0.00 
 210   12:50   1.07   72.9    60    4.7   185     7.2   813.8    0.00 
 210   13:00   0.31   72.7    60    4.5   195     7.2   813.7    0.00 
 210   13:10   0.18   71.9    61    4.4   182     7.2   813.8    0.00 
 210   13:20   0.07   71.1    62    4.5   190     9.6   813.7    0.00 
 210   13:30   0.08   69.9    69    5.9   180    11.9   813.7    0.01 
 210   13:40   0.16   67.3    79    4.4   194     7.8   813.9    0.01 
 210   13:50   0.29   65.9    88    2.7   331     7.2   813.8    0.08 
 210   14:00   0.49   66.4    86    3.1   316     7.2   813.8    0.00 
 210   14:10   0.54   67.6    84    3.7   336     7.2   813.6    0.01 
 210   14:20   0.99   70.2    76    3.5   358     6.6   813.3    0.00 

Return to Jemez Springs, Valles Caldera graphs page.


Western Regional Climate Center,wrcc@dri.edu